createdAt,value
2023-01-24T00:00:43.466Z,97.64
2023-01-24T00:03:13.596Z,97.51
2023-01-24T00:05:42.391Z,97.29
2023-01-24T00:08:11.898Z,97.17
2023-01-24T00:10:39.376Z,97.18
2023-01-24T00:13:07.526Z,97.45
2023-01-24T00:15:34.613Z,97.70
2023-01-24T00:18:01.710Z,97.41
2023-01-24T00:20:28.875Z,97.30
2023-01-24T00:22:56.000Z,97.50
2023-01-24T00:25:23.850Z,97.55
2023-01-24T00:27:50.923Z,97.24
2023-01-24T00:30:18.159Z,97.11
2023-01-24T00:32:46.185Z,97.31
2023-01-24T00:35:13.675Z,97.07
2023-01-24T00:37:41.539Z,97.21
2023-01-24T00:40:10.301Z,97.37
2023-01-24T00:42:37.403Z,97.28
2023-01-24T00:45:05.961Z,97.32
2023-01-24T00:47:33.262Z,97.43
2023-01-24T00:50:00.279Z,97.29
2023-01-24T00:52:27.598Z,97.31
2023-01-24T00:54:55.043Z,96.92
2023-01-24T00:57:23.467Z,97.28
2023-01-24T00:59:50.606Z,97.09
2023-01-24T01:02:17.681Z,97.32
2023-01-24T01:04:44.807Z,97.22
2023-01-24T01:07:11.896Z,97.07
2023-01-24T01:09:39.106Z,97.27
2023-01-24T01:12:06.454Z,97.35
2023-01-24T01:14:33.541Z,97.05
2023-01-24T01:17:00.607Z,97.36
2023-01-24T01:19:27.854Z,97.23
2023-01-24T01:21:54.895Z,97.17
2023-01-24T01:24:21.954Z,97.15
2023-01-24T01:26:49.025Z,97.13
2023-01-24T01:29:16.138Z,96.95
2023-01-24T01:31:43.348Z,97.23
2023-01-24T01:34:12.018Z,96.99
2023-01-24T01:36:39.249Z,96.89
2023-01-24T01:39:07.205Z,96.70
2023-01-24T01:41:34.641Z,96.67
2023-01-24T01:44:48.259Z,96.84
2023-01-24T01:47:23.838Z,96.72
2023-01-24T01:50:16.093Z,96.31
2023-01-24T01:52:44.096Z,96.92
2023-01-24T01:55:17.918Z,96.52
2023-01-24T01:57:46.416Z,96.86
2023-01-24T02:00:21.297Z,96.68
2023-01-24T02:03:16.728Z,96.44
2023-01-24T02:05:44.318Z,96.42
2023-01-24T02:08:14.444Z,96.37
2023-01-24T02:11:00.513Z,96.53
2023-01-24T02:13:27.746Z,96.53
2023-01-24T02:16:04.111Z,96.49
2023-01-24T02:18:39.677Z,96.22
2023-01-24T02:21:12.658Z,96.65
2023-01-24T02:24:00.234Z,96.67
2023-01-24T02:26:29.572Z,97.00
2023-01-24T02:28:58.501Z,96.80
2023-01-24T02:31:26.153Z,96.65
2023-01-24T02:33:53.586Z,96.68
2023-01-24T02:36:34.073Z,96.59
2023-01-24T02:39:20.004Z,96.30
2023-01-24T02:41:51.011Z,96.25
2023-01-24T02:44:38.448Z,96.23
2023-01-24T02:47:05.634Z,96.37
2023-01-24T02:49:32.823Z,96.18
2023-01-24T02:52:18.476Z,96.34
2023-01-24T02:54:45.577Z,96.28
2023-01-24T02:57:31.414Z,96.60
2023-01-24T02:59:58.606Z,96.23
2023-01-24T03:02:26.596Z,96.36
2023-01-24T03:04:53.722Z,96.39
2023-01-24T03:07:21.133Z,95.97
2023-01-24T03:09:53.505Z,96.09
2023-01-24T03:12:42.226Z,96.16
2023-01-24T03:15:29.633Z,96.07
2023-01-24T03:18:18.329Z,96.17
2023-01-24T03:21:07.141Z,96.29
2023-01-24T03:23:53.233Z,96.18
2023-01-24T03:26:39.089Z,96.05
2023-01-24T03:29:25.529Z,96.32
2023-01-24T03:32:11.334Z,96.42
2023-01-24T03:34:50.205Z,96.13
2023-01-24T03:37:41.528Z,96.31
2023-01-24T03:40:14.837Z,96.10
2023-01-24T03:42:49.497Z,96.31
2023-01-24T03:45:27.348Z,96.24
2023-01-24T03:48:01.651Z,96.28
2023-01-24T03:50:51.005Z,96.26
2023-01-24T03:53:20.050Z,95.91
2023-01-24T03:55:53.670Z,95.86
2023-01-24T03:58:21.263Z,95.89
2023-01-24T04:00:48.860Z,96.09
2023-01-24T04:03:48.045Z,96.02
2023-01-24T04:06:15.498Z,95.87
2023-01-24T04:08:42.501Z,96.01
2023-01-24T04:11:09.696Z,95.83
2023-01-24T04:13:36.801Z,95.82
2023-01-24T04:16:04.044Z,95.99
2023-01-24T04:19:06.271Z,95.50
2023-01-24T04:21:33.357Z,95.87
2023-01-24T04:24:00.592Z,95.62
2023-01-24T04:26:29.172Z,95.80
2023-01-24T04:28:56.498Z,95.90
2023-01-24T04:31:23.848Z,95.51
2023-01-24T04:34:11.281Z,95.33
2023-01-24T04:36:40.661Z,95.55
2023-01-24T04:39:07.749Z,95.80
2023-01-24T04:41:48.677Z,95.24
2023-01-24T04:44:16.794Z,95.13
2023-01-24T04:46:44.652Z,95.09
2023-01-24T04:49:11.900Z,95.06
2023-01-24T04:51:44.039Z,95.20
2023-01-24T04:54:18.502Z,94.97
2023-01-24T04:56:47.951Z,95.00
2023-01-24T04:59:15.226Z,94.96
2023-01-24T05:01:44.052Z,95.01
2023-01-24T05:04:25.995Z,94.93
2023-01-24T05:06:53.115Z,94.76
2023-01-24T05:09:20.197Z,94.50
2023-01-24T05:11:56.275Z,94.67
2023-01-24T05:14:24.191Z,94.40
2023-01-24T05:16:51.562Z,94.42
2023-01-24T05:19:18.665Z,94.24
2023-01-24T05:21:46.014Z,94.18
2023-01-24T05:24:14.570Z,94.37
2023-01-24T05:26:41.786Z,94.04
2023-01-24T05:29:10.544Z,94.21
2023-01-24T05:31:39.127Z,93.85
2023-01-24T05:34:06.547Z,93.89
2023-01-24T05:36:34.033Z,94.18
2023-01-24T05:39:02.474Z,93.82
2023-01-24T05:41:31.749Z,93.72
2023-01-24T05:43:59.885Z,93.76
2023-01-24T05:46:30.957Z,93.65
2023-01-24T05:49:09.255Z,93.53
2023-01-24T05:51:36.524Z,93.15
2023-01-24T05:54:05.049Z,93.34
2023-01-24T05:56:54.646Z,93.19
2023-01-24T05:59:21.860Z,93.17
2023-01-24T06:01:48.937Z,93.05
2023-01-24T06:04:17.220Z,93.22
2023-01-24T06:06:44.267Z,92.86
2023-01-24T06:09:11.501Z,92.86
2023-01-24T06:11:39.348Z,93.03
2023-01-24T06:14:19.161Z,93.03
2023-01-24T06:16:48.088Z,92.81
2023-01-24T06:19:16.657Z,92.95
2023-01-24T06:21:46.404Z,92.84
2023-01-24T06:24:22.200Z,92.30
2023-01-24T06:27:13.682Z,92.29
2023-01-24T06:29:40.974Z,92.77
2023-01-24T06:32:13.662Z,92.55
2023-01-24T06:34:58.866Z,92.95
2023-01-24T06:37:51.769Z,92.61
2023-01-24T06:40:21.720Z,92.59
2023-01-24T06:42:49.225Z,92.64
2023-01-24T06:45:17.154Z,92.40
2023-01-24T06:47:45.074Z,92.49
2023-01-24T06:50:17.156Z,92.21
2023-01-24T06:52:49.064Z,91.78
2023-01-24T06:55:16.779Z,92.42
2023-01-24T06:57:44.967Z,92.30
2023-01-24T07:00:12.767Z,91.68
2023-01-24T07:02:39.943Z,92.10
2023-01-24T07:05:07.273Z,91.94
2023-01-24T07:07:34.403Z,91.85
2023-01-24T07:10:01.490Z,91.82
2023-01-24T07:12:28.543Z,91.87
2023-01-24T07:14:55.656Z,91.64
2023-01-24T07:17:22.967Z,91.57
2023-01-24T07:19:50.454Z,91.30
2023-01-24T07:22:17.849Z,91.10
2023-01-24T07:24:46.152Z,91.27
2023-01-24T07:27:13.456Z,91.18
2023-01-24T07:29:40.715Z,91.06
2023-01-24T07:32:09.824Z,91.10
2023-01-24T07:34:37.104Z,91.14
2023-01-24T07:37:04.144Z,91.25
2023-01-24T07:39:31.499Z,90.72
2023-01-24T07:41:58.675Z,90.75
2023-01-24T07:44:26.080Z,90.59
2023-01-24T07:46:53.209Z,90.36
2023-01-24T07:49:20.362Z,90.50
2023-01-24T07:51:49.439Z,89.91
2023-01-24T07:54:18.746Z,89.91
2023-01-24T07:56:45.769Z,89.96
2023-01-24T07:59:14.921Z,90.28
2023-01-24T08:01:42.208Z,89.53
2023-01-24T08:04:10.109Z,89.65
2023-01-24T08:06:37.121Z,89.27
2023-01-24T08:09:04.270Z,89.17
2023-01-24T08:11:31.387Z,88.82
2023-01-24T08:13:58.431Z,88.81
2023-01-24T08:16:27.248Z,88.58
2023-01-24T08:18:54.411Z,88.38
2023-01-24T08:21:21.454Z,88.50
2023-01-24T08:23:48.667Z,88.25
2023-01-24T08:26:15.760Z,88.17
2023-01-24T08:28:42.763Z,88.11
2023-01-24T08:31:09.939Z,87.96
2023-01-24T08:33:39.175Z,87.57
2023-01-24T08:36:06.869Z,87.50
2023-01-24T08:38:34.107Z,86.87
2023-01-24T08:41:04.428Z,87.01
2023-01-24T08:43:31.995Z,86.55
2023-01-24T08:45:59.100Z,86.56
2023-01-24T08:48:26.374Z,86.86
2023-01-24T08:50:53.483Z,86.59
2023-01-24T08:53:20.537Z,86.56
2023-01-24T08:55:51.461Z,86.18
2023-01-24T08:58:18.615Z,85.83
2023-01-24T09:00:45.711Z,86.32
2023-01-24T09:03:13.348Z,86.03
2023-01-24T09:05:40.398Z,85.80
2023-01-24T09:08:07.601Z,85.86
2023-01-24T09:10:34.864Z,85.74
2023-01-24T09:13:02.837Z,85.65
2023-01-24T09:15:29.943Z,85.42
2023-01-24T09:17:57.178Z,84.82
2023-01-24T09:20:24.444Z,84.55
2023-01-24T09:22:51.577Z,84.74
2023-01-24T09:25:18.701Z,84.63
2023-01-24T09:27:46.636Z,84.89
2023-01-24T09:30:14.334Z,84.75
2023-01-24T09:32:45.172Z,85.10
2023-01-24T09:35:12.363Z,85.09
2023-01-24T09:37:41.301Z,85.09
2023-01-24T09:40:19.480Z,84.40
2023-01-24T09:42:58.174Z,84.70
2023-01-24T09:45:38.281Z,85.02
2023-01-24T09:48:12.099Z,84.92
2023-01-24T09:50:52.633Z,84.42
2023-01-24T09:53:36.376Z,84.76
2023-01-24T09:56:05.464Z,84.50
2023-01-24T09:59:01.486Z,84.10
2023-01-24T10:01:28.504Z,84.47
2023-01-24T10:03:55.712Z,84.27
2023-01-24T10:06:27.520Z,84.37
2023-01-24T10:09:14.429Z,84.17
2023-01-24T10:11:59.835Z,84.16
2023-01-24T10:14:44.942Z,83.45
2023-01-24T10:17:28.827Z,82.94
2023-01-24T10:20:07.359Z,83.26
2023-01-24T10:23:03.799Z,82.57
2023-01-24T10:25:51.003Z,82.24
2023-01-24T10:28:34.241Z,82.55
2023-01-24T10:31:01.511Z,82.32
2023-01-24T10:33:34.278Z,81.39
2023-01-24T10:36:18.364Z,81.46
2023-01-24T10:38:45.453Z,80.72
2023-01-24T10:41:20.821Z,80.30
2023-01-24T10:43:54.881Z,80.20
2023-01-24T10:46:52.744Z,79.89
2023-01-24T10:49:29.913Z,80.05
2023-01-24T10:52:17.953Z,80.20
2023-01-24T10:54:56.665Z,79.83
2023-01-24T10:57:50.273Z,80.06
2023-01-24T11:00:29.171Z,80.21
2023-01-24T11:03:17.894Z,79.99
2023-01-24T11:05:49.453Z,80.17
2023-01-24T11:08:25.633Z,80.23
2023-01-24T11:10:57.950Z,79.56
2023-01-24T11:13:28.125Z,79.29
2023-01-24T11:16:05.145Z,79.06
2023-01-24T11:18:34.805Z,79.43
2023-01-24T11:21:09.496Z,79.06
2023-01-24T11:23:37.038Z,79.23
2023-01-24T11:26:06.067Z,78.71
2023-01-24T11:28:38.482Z,79.22
2023-01-24T11:31:15.740Z,79.16
2023-01-24T11:34:13.263Z,79.47
2023-01-24T11:36:43.250Z,79.20
2023-01-24T11:39:49.665Z,78.82
2023-01-24T11:42:35.361Z,79.06
2023-01-24T11:45:27.015Z,79.13
2023-01-24T11:48:21.344Z,79.64
2023-01-24T11:51:08.210Z,79.34
2023-01-24T11:54:15.774Z,79.26
2023-01-24T11:57:10.487Z,79.39
2023-01-24T12:00:02.936Z,79.56
2023-01-24T12:02:57.578Z,79.60
2023-01-24T12:05:41.395Z,79.83
2023-01-24T12:08:45.917Z,80.03
2023-01-24T12:11:35.660Z,79.83
2023-01-24T12:14:30.247Z,79.88
2023-01-24T12:17:18.548Z,80.23
2023-01-24T12:19:59.972Z,80.02
2023-01-24T12:22:29.435Z,80.32
2023-01-24T12:25:05.360Z,80.41
2023-01-24T12:27:37.153Z,80.57
2023-01-24T12:30:16.641Z,80.37
2023-01-24T12:32:53.783Z,80.64
2023-01-24T12:35:33.529Z,80.65
2023-01-24T12:38:10.451Z,79.77
2023-01-24T12:41:28.086Z,80.31
2023-01-24T12:44:23.926Z,80.80
2023-01-24T12:47:26.290Z,80.54
2023-01-24T12:49:59.859Z,81.02
2023-01-24T12:52:53.884Z,81.03
2023-01-24T12:55:32.874Z,80.27
2023-01-24T12:58:06.291Z,81.22
2023-01-24T13:01:07.887Z,81.26
2023-01-24T13:03:59.239Z,81.64
2023-01-24T13:06:48.895Z,81.66
2023-01-24T13:09:30.484Z,81.67
2023-01-24T13:12:00.205Z,82.00
2023-01-24T13:14:42.184Z,82.46
2023-01-24T13:17:27.737Z,82.79
2023-01-24T13:20:45.570Z,82.30
2023-01-24T13:23:36.816Z,82.11
2023-01-24T13:26:29.868Z,82.23
2023-01-24T13:29:34.131Z,82.43
2023-01-24T13:32:13.199Z,82.61
2023-01-24T13:34:47.813Z,82.45
2023-01-24T13:37:21.719Z,82.83
2023-01-24T13:39:59.515Z,82.87
2023-01-24T13:42:39.822Z,82.99
2023-01-24T13:45:27.935Z,82.75
2023-01-24T13:47:57.319Z,83.01
2023-01-24T13:50:28.189Z,83.33
2023-01-24T13:53:02.061Z,83.46
2023-01-24T13:55:31.195Z,83.44
2023-01-24T13:58:14.084Z,83.36
2023-01-24T14:00:57.903Z,83.60
2023-01-24T14:03:38.865Z,83.29
2023-01-24T14:06:10.569Z,83.62
2023-01-24T14:08:44.405Z,83.92
2023-01-24T14:11:20.585Z,83.83
2023-01-24T14:13:56.431Z,83.54
2023-01-24T14:16:29.389Z,84.04
2023-01-24T14:19:05.136Z,84.58
2023-01-24T14:21:45.832Z,84.94
2023-01-24T14:24:46.416Z,84.65
2023-01-24T14:27:36.766Z,84.73
2023-01-24T14:30:28.836Z,84.45
2023-01-24T14:33:06.114Z,84.90
2023-01-24T14:35:39.893Z,84.99
2023-01-24T14:38:18.565Z,85.84
2023-01-24T14:40:55.902Z,86.24
2023-01-24T14:43:33.548Z,85.92
2023-01-24T14:46:11.127Z,86.18
2023-01-24T14:48:38.521Z,86.15
2023-01-24T14:51:08.579Z,86.20
2023-01-24T14:53:36.135Z,85.97
2023-01-24T14:56:11.741Z,86.09
2023-01-24T14:58:38.894Z,85.83
2023-01-24T15:01:24.459Z,85.93
2023-01-24T15:03:51.736Z,86.25
2023-01-24T15:06:20.223Z,86.39
2023-01-24T15:08:48.632Z,86.15
2023-01-24T15:11:22.314Z,86.09
2023-01-24T15:13:53.265Z,86.25
2023-01-24T15:16:34.614Z,86.23
2023-01-24T15:19:07.271Z,86.65
2023-01-24T15:21:49.606Z,86.70
2023-01-24T15:24:28.938Z,86.47
2023-01-24T15:26:57.704Z,86.28
2023-01-24T15:29:47.384Z,86.86
2023-01-24T15:32:39.138Z,86.47
2023-01-24T15:35:31.899Z,86.67
2023-01-24T15:38:26.554Z,86.61
2023-01-24T15:41:16.368Z,87.00
2023-01-24T15:43:50.956Z,86.73
2023-01-24T15:46:58.842Z,86.68
2023-01-24T15:49:37.371Z,86.90
2023-01-24T15:52:06.553Z,87.18
2023-01-24T15:54:34.324Z,87.18
2023-01-24T15:57:04.337Z,87.48
2023-01-24T15:59:32.996Z,87.45
2023-01-24T16:02:03.062Z,87.87
2023-01-24T16:04:30.171Z,88.01
2023-01-24T16:06:57.323Z,88.04
2023-01-24T16:09:25.535Z,88.71
2023-01-24T16:11:52.642Z,88.19
2023-01-24T16:14:24.872Z,88.66
2023-01-24T16:16:55.711Z,88.66
2023-01-24T16:19:24.826Z,88.44
2023-01-24T16:21:52.732Z,88.41
2023-01-24T16:24:20.537Z,88.78
2023-01-24T16:26:53.446Z,88.74
2023-01-24T16:29:29.858Z,89.01
2023-01-24T16:31:57.406Z,88.78
2023-01-24T16:34:25.006Z,89.28
2023-01-24T16:36:52.182Z,89.43
2023-01-24T16:39:21.794Z,89.50
2023-01-24T16:41:50.367Z,89.46
2023-01-24T16:44:17.907Z,90.07
2023-01-24T16:46:50.225Z,90.12
2023-01-24T16:49:17.640Z,90.82
2023-01-24T16:51:46.115Z,91.05
2023-01-24T16:54:13.290Z,91.30
2023-01-24T16:56:40.441Z,91.24
2023-01-24T16:59:07.509Z,90.91
2023-01-24T17:01:34.529Z,91.19
2023-01-24T17:04:03.424Z,91.11
2023-01-24T17:06:30.503Z,91.30
2023-01-24T17:08:58.048Z,91.17
2023-01-24T17:11:25.164Z,91.37
2023-01-24T17:13:52.302Z,91.63
2023-01-24T17:16:19.543Z,91.80
2023-01-24T17:18:46.722Z,91.75
2023-01-24T17:21:16.235Z,91.83
2023-01-24T17:23:44.173Z,91.96
2023-01-24T17:26:14.328Z,91.84
2023-01-24T17:28:43.108Z,91.45
2023-01-24T17:31:17.542Z,91.67
2023-01-24T17:33:44.917Z,91.65
2023-01-24T17:36:14.287Z,91.50
2023-01-24T17:38:43.505Z,91.48
2023-01-24T17:41:14.891Z,91.79
2023-01-24T17:43:52.242Z,92.04
2023-01-24T17:46:19.758Z,92.13
2023-01-24T17:48:46.953Z,92.14
2023-01-24T17:51:21.057Z,92.24
2023-01-24T17:53:48.772Z,92.30
2023-01-24T17:56:17.761Z,92.49
2023-01-24T17:58:45.599Z,92.08
2023-01-24T18:01:16.123Z,91.77
2023-01-24T18:03:44.909Z,91.66
2023-01-24T18:06:12.657Z,91.62
2023-01-24T18:08:39.867Z,91.34
2023-01-24T18:11:09.139Z,91.56
2023-01-24T18:13:37.286Z,91.76
2023-01-24T18:16:11.150Z,91.98
2023-01-24T18:18:39.681Z,91.93
2023-01-24T18:21:14.307Z,91.59
2023-01-24T18:23:41.474Z,91.71
2023-01-24T18:26:09.713Z,91.49
2023-01-24T18:28:37.166Z,91.56
2023-01-24T18:31:11.933Z,91.46
2023-01-24T18:33:39.959Z,91.39
2023-01-24T18:36:18.611Z,91.04
2023-01-24T18:38:46.966Z,91.12
2023-01-24T18:41:15.112Z,90.53
2023-01-24T18:43:42.408Z,90.45
2023-01-24T18:46:12.702Z,90.02
2023-01-24T18:48:42.064Z,89.59
2023-01-24T18:51:20.373Z,89.35
2023-01-24T18:53:49.319Z,89.00
2023-01-24T18:56:19.907Z,88.80
2023-01-24T18:58:47.729Z,88.83
2023-01-24T19:01:20.699Z,88.09
2023-01-24T19:03:48.135Z,87.15
2023-01-24T19:06:15.656Z,86.78
2023-01-24T19:09:00.482Z,86.65
2023-01-24T19:11:30.626Z,86.58
2023-01-24T19:13:58.236Z,86.84
2023-01-24T19:16:25.507Z,86.81
2023-01-24T19:18:52.930Z,86.48
2023-01-24T19:21:20.487Z,86.73
2023-01-24T19:23:48.359Z,86.49
2023-01-24T19:26:16.991Z,86.40
2023-01-24T19:28:44.591Z,86.30
2023-01-24T19:31:11.844Z,86.36
2023-01-24T19:33:39.084Z,86.21
2023-01-24T19:36:08.332Z,86.51
2023-01-24T19:38:35.767Z,86.06
2023-01-24T19:41:07.558Z,86.26
2023-01-24T19:43:37.504Z,86.18
2023-01-24T19:48:53.055Z,85.13
2023-01-24T19:51:20.661Z,85.42
2023-01-24T19:53:50.634Z,85.59
2023-01-24T19:56:18.684Z,85.17
2023-01-24T19:58:46.034Z,84.93
2023-01-24T20:01:18.707Z,85.29
2023-01-24T20:03:46.743Z,85.27
2023-01-24T20:06:17.058Z,85.59
2023-01-24T20:08:48.451Z,85.60
2023-01-24T20:11:16.104Z,85.32
2023-01-24T20:13:43.714Z,85.73
2023-01-24T20:16:22.072Z,85.81
2023-01-24T20:18:57.152Z,85.91
2023-01-24T20:21:26.734Z,85.69
2023-01-24T20:23:55.743Z,85.56
2023-01-24T20:26:22.987Z,85.70
2023-01-24T20:28:50.342Z,85.43
2023-01-24T20:31:17.491Z,85.18
2023-01-24T20:33:47.557Z,85.43
2023-01-24T20:36:15.797Z,85.41
2023-01-24T20:38:42.882Z,85.53
2023-01-24T20:41:16.147Z,85.55
2023-01-24T20:43:44.292Z,85.58
2023-01-24T20:46:14.098Z,85.74
2023-01-24T20:48:41.219Z,85.55
2023-01-24T20:51:08.769Z,85.69
2023-01-24T20:53:36.595Z,85.22
2023-01-24T20:56:06.100Z,85.56
2023-01-24T20:58:34.279Z,85.56
2023-01-24T21:01:24.223Z,85.22
2023-01-24T21:03:52.841Z,85.10
2023-01-24T21:06:21.913Z,85.36
2023-01-24T21:08:49.620Z,85.71
2023-01-24T21:11:22.173Z,85.75
2023-01-24T21:13:54.267Z,85.87
2023-01-24T21:16:23.038Z,85.67
2023-01-24T21:18:53.236Z,85.62
2023-01-24T21:21:24.776Z,85.47
2023-01-24T21:23:52.066Z,85.58
2023-01-24T21:26:20.373Z,85.50
2023-01-24T21:28:49.978Z,85.62
2023-01-24T21:31:20.529Z,85.59
2023-01-24T21:33:49.062Z,85.52
2023-01-24T21:36:21.472Z,85.82
2023-01-24T21:38:50.110Z,86.02
2023-01-24T21:41:42.417Z,85.98
2023-01-24T21:44:10.960Z,85.63
2023-01-24T21:46:38.254Z,85.74
2023-01-24T21:49:05.844Z,85.98
2023-01-24T21:51:52.988Z,85.72
2023-01-24T21:54:34.316Z,86.38
2023-01-24T21:57:31.355Z,86.03
2023-01-24T22:00:01.093Z,86.04
2023-01-24T22:02:32.605Z,86.06
2023-01-24T22:05:00.818Z,86.10
2023-01-24T22:07:30.405Z,86.16
2023-01-24T22:09:59.211Z,85.95
2023-01-24T22:12:27.796Z,86.14
2023-01-24T22:14:55.528Z,86.22
2023-01-24T22:17:24.427Z,86.53
2023-01-24T22:19:54.222Z,86.42
2023-01-24T22:22:27.273Z,86.27
2023-01-24T22:25:17.732Z,85.96
2023-01-24T22:27:46.688Z,86.13
2023-01-24T22:30:20.391Z,86.38
2023-01-24T22:32:48.270Z,86.15
2023-01-24T22:35:17.555Z,86.30
2023-01-24T22:37:47.486Z,86.31
2023-01-24T22:40:16.907Z,86.07
2023-01-24T22:42:44.307Z,85.92
2023-01-24T22:45:11.719Z,86.09
2023-01-24T22:47:39.101Z,85.76
2023-01-24T22:50:06.541Z,85.86
2023-01-24T22:52:36.700Z,86.02
2023-01-24T22:55:03.794Z,86.22
2023-01-24T22:57:31.129Z,85.99
2023-01-24T22:59:58.631Z,86.09
2023-01-24T23:02:25.808Z,86.43
2023-01-24T23:04:52.915Z,86.55
2023-01-24T23:07:22.661Z,86.70
2023-01-24T23:09:50.343Z,86.59
2023-01-24T23:12:36.104Z,86.64
2023-01-24T23:15:22.039Z,86.59
2023-01-24T23:17:52.124Z,86.98
2023-01-24T23:20:37.459Z,86.99
2023-01-24T23:23:04.579Z,86.58
2023-01-24T23:25:31.865Z,86.92
2023-01-24T23:27:58.869Z,86.92
2023-01-24T23:30:42.117Z,87.00
2023-01-24T23:33:33.188Z,87.11
2023-01-24T23:36:01.697Z,87.18
2023-01-24T23:38:30.679Z,87.48
2023-01-24T23:40:58.275Z,87.25
2023-01-24T23:43:25.483Z,87.40
2023-01-24T23:45:52.546Z,87.14
2023-01-24T23:48:20.601Z,87.30
2023-01-24T23:50:56.618Z,87.54
2023-01-24T23:53:24.712Z,87.48
2023-01-24T23:55:52.127Z,87.63
2023-01-24T23:58:19.257Z,87.85
